Niles, Mississippi
Current Conditions -  °F | °C
As of 6:35 AM on Monday 26 Jan 2015 (Local Time) from KRNV Reporting Station
Overcast Overcast  
Wind Chill: 35°   Ceiling: 2600
Heat Index: 41°   Visibility: 10mi
Dew Point: 36°   Wind: 12mph
Humidity: 82%   Direction: 350°N
Pressure: 30.12"   Gusts: NA
Location:  33.8277°N, 90.9559°W
Report Text: KRNV 261235Z AUTO 35010KT 10SM OVC026 05/02 A3012 RMK AO2 T00510022
Loading
Personal Weather Stations






























Interactive Weather Map New forecast layout! Learn more

10-Day Weather Forecast

Advertisements
Track Severe Weather on mobile